createdAt,value
2023-03-30T00:02:23.814Z,55.88
2023-03-30T00:04:51.962Z,55.24
2023-03-30T00:07:18.873Z,55.29
2023-03-30T00:09:45.371Z,55.20
2023-03-30T00:12:13.357Z,54.98
2023-03-30T00:14:40.243Z,54.76
2023-03-30T00:17:07.213Z,54.66
2023-03-30T00:19:34.363Z,54.69
2023-03-30T00:22:00.838Z,54.76
2023-03-30T00:24:27.321Z,55.05
2023-03-30T00:26:53.818Z,55.10
2023-03-30T00:29:20.296Z,55.18
2023-03-30T00:31:46.964Z,55.38
2023-03-30T00:34:13.702Z,55.52
2023-03-30T00:36:40.223Z,55.56
2023-03-30T00:39:07.154Z,55.59
2023-03-30T00:41:35.068Z,54.74
2023-03-30T00:44:03.198Z,54.60
2023-03-30T00:46:31.000Z,54.53
2023-03-30T00:49:02.754Z,54.18
2023-03-30T00:51:29.730Z,54.05
2023-03-30T00:54:18.973Z,54.39
2023-03-30T00:56:45.685Z,54.75
2023-03-30T00:59:12.736Z,54.73
2023-03-30T01:01:41.273Z,54.29
2023-03-30T01:04:09.297Z,53.95
2023-03-30T01:06:37.538Z,53.28
2023-03-30T01:09:04.074Z,52.93
2023-03-30T01:11:30.622Z,53.01
2023-03-30T01:14:01.920Z,53.08
2023-03-30T01:17:00.819Z,52.96
2023-03-30T01:19:36.337Z,52.81
2023-03-30T01:22:40.377Z,52.64
2023-03-30T01:25:44.330Z,52.48
2023-03-30T01:28:10.837Z,52.33
2023-03-30T01:30:49.426Z,52.41
2023-03-30T01:33:33.907Z,52.40
2023-03-30T01:36:12.389Z,52.75
2023-03-30T01:38:45.095Z,52.80
2023-03-30T01:41:30.266Z,52.90
2023-03-30T01:43:59.266Z,52.85
2023-03-30T01:46:32.877Z,52.81
2023-03-30T01:49:14.455Z,52.79
2023-03-30T01:52:10.331Z,52.79
2023-03-30T01:54:42.524Z,52.79
2023-03-30T01:57:25.136Z,52.82
2023-03-30T02:00:03.201Z,52.86
2023-03-30T02:02:31.533Z,52.76
2023-03-30T02:05:02.677Z,52.89
2023-03-30T02:07:32.472Z,53.06
2023-03-30T02:10:03.385Z,53.42
2023-03-30T02:12:31.597Z,53.61
2023-03-30T02:15:03.604Z,53.67
2023-03-30T02:17:31.030Z,53.80
2023-03-30T02:19:59.242Z,53.44
2023-03-30T02:22:27.899Z,53.64
2023-03-30T02:24:56.982Z,53.65
2023-03-30T02:27:25.214Z,53.71
2023-03-30T02:29:51.713Z,53.71
2023-03-30T02:32:21.265Z,53.90
2023-03-30T02:35:15.913Z,53.76
2023-03-30T02:37:48.168Z,53.70
2023-03-30T02:40:27.947Z,53.91
2023-03-30T02:43:22.540Z,54.03
2023-03-30T02:45:52.812Z,54.43
2023-03-30T02:48:41.614Z,54.78
2023-03-30T02:51:43.002Z,55.14
2023-03-30T02:54:17.010Z,55.35
2023-03-30T02:57:07.594Z,55.07
2023-03-30T02:59:56.628Z,55.23
2023-03-30T03:02:30.312Z,55.70
2023-03-30T03:04:57.051Z,55.90
2023-03-30T03:07:25.488Z,55.56
2023-03-30T03:09:51.986Z,55.32
2023-03-30T03:12:18.475Z,55.30
2023-03-30T03:14:44.994Z,55.49
2023-03-30T03:17:11.532Z,55.81
2023-03-30T03:19:38.010Z,55.97
2023-03-30T03:22:04.599Z,55.77
2023-03-30T03:24:31.098Z,55.66
2023-03-30T03:26:57.571Z,55.60
2023-03-30T03:29:24.084Z,55.46
2023-03-30T03:31:50.556Z,55.39
2023-03-30T03:34:16.988Z,55.32
2023-03-30T03:36:43.481Z,55.36
2023-03-30T03:39:09.964Z,55.42
2023-03-30T03:41:36.467Z,55.32
2023-03-30T03:44:02.916Z,55.20
2023-03-30T03:46:29.444Z,55.25
2023-03-30T03:48:55.964Z,55.38
2023-03-30T03:51:22.424Z,55.75
2023-03-30T03:53:48.920Z,55.74
2023-03-30T03:56:15.671Z,55.89
2023-03-30T03:58:42.163Z,56.00
2023-03-30T04:01:08.901Z,55.73
2023-03-30T04:03:35.660Z,55.39
2023-03-30T04:06:02.165Z,55.19
2023-03-30T04:08:28.723Z,55.30
2023-03-30T04:10:55.202Z,55.55
2023-03-30T04:13:21.692Z,55.63
2023-03-30T04:15:48.210Z,55.24
2023-03-30T04:18:14.718Z,55.25
2023-03-30T04:20:41.301Z,55.03
2023-03-30T04:23:07.808Z,54.92
2023-03-30T04:25:34.291Z,54.96
2023-03-30T04:28:00.796Z,55.02
2023-03-30T04:30:27.313Z,55.01
2023-03-30T04:32:53.858Z,55.12
2023-03-30T04:35:20.804Z,55.21
2023-03-30T04:37:47.654Z,55.05
2023-03-30T04:40:14.455Z,55.13
2023-03-30T04:42:40.965Z,55.33
2023-03-30T04:45:09.081Z,55.61
2023-03-30T04:47:35.792Z,56.02
2023-03-30T04:50:02.494Z,55.72
2023-03-30T04:52:32.808Z,55.88
2023-03-30T04:54:59.277Z,55.85
2023-03-30T04:57:25.811Z,55.94
2023-03-30T04:59:53.848Z,55.73
2023-03-30T05:02:21.130Z,55.72
2023-03-30T05:04:47.632Z,55.81
2023-03-30T05:07:14.161Z,55.93
2023-03-30T05:09:40.670Z,55.87
2023-03-30T05:12:07.295Z,55.47
2023-03-30T05:14:33.813Z,55.76
2023-03-30T05:17:00.382Z,55.28
2023-03-30T05:19:27.005Z,54.82
2023-03-30T05:21:53.887Z,54.64
2023-03-30T05:24:20.347Z,54.41
2023-03-30T05:26:46.803Z,54.57
2023-03-30T05:29:13.401Z,54.06
2023-03-30T05:31:39.920Z,53.78
2023-03-30T05:34:06.499Z,53.62
2023-03-30T05:36:33.026Z,53.61
2023-03-30T05:38:59.530Z,53.46
2023-03-30T05:41:26.043Z,53.44
2023-03-30T05:43:52.628Z,53.35
2023-03-30T05:46:19.194Z,53.14
2023-03-30T05:48:45.778Z,53.03
2023-03-30T05:51:12.307Z,53.06
2023-03-30T05:53:38.796Z,53.02
2023-03-30T05:56:05.715Z,52.82
2023-03-30T05:58:32.198Z,52.72
2023-03-30T06:00:59.058Z,52.52
2023-03-30T06:03:25.681Z,52.51
2023-03-30T06:05:53.541Z,52.55
2023-03-30T06:08:22.172Z,52.33
2023-03-30T06:10:57.083Z,52.24
2023-03-30T06:13:24.111Z,52.12
2023-03-30T06:15:51.099Z,51.92
2023-03-30T06:18:17.792Z,51.69
2023-03-30T06:20:47.101Z,51.69
2023-03-30T06:23:13.651Z,51.76
2023-03-30T06:25:40.191Z,51.71
2023-03-30T06:28:07.091Z,51.60
2023-03-30T06:30:33.794Z,51.66
2023-03-30T06:33:00.323Z,51.71
2023-03-30T06:35:26.848Z,51.65
2023-03-30T06:37:53.294Z,51.61
2023-03-30T06:40:19.789Z,51.52
2023-03-30T06:42:46.282Z,51.27
2023-03-30T06:45:13.882Z,50.84
2023-03-30T06:47:40.792Z,50.72
2023-03-30T06:50:07.890Z,50.83
2023-03-30T06:52:35.544Z,50.53
2023-03-30T06:55:02.393Z,50.38
2023-03-30T06:57:28.973Z,50.09
2023-03-30T06:59:55.495Z,50.19
2023-03-30T07:02:23.311Z,49.72
2023-03-30T07:04:49.820Z,49.66
2023-03-30T07:07:16.310Z,49.70
2023-03-30T07:09:42.812Z,49.70
2023-03-30T07:12:09.378Z,49.61
2023-03-30T07:14:35.867Z,49.54
2023-03-30T07:17:02.466Z,49.69
2023-03-30T07:19:29.004Z,49.72
2023-03-30T07:21:55.488Z,49.76
2023-03-30T07:24:21.957Z,49.82
2023-03-30T07:26:48.477Z,49.87
2023-03-30T07:29:15.029Z,49.78
2023-03-30T07:31:41.679Z,49.66
2023-03-30T07:34:08.665Z,49.54
2023-03-30T07:36:35.288Z,49.45
2023-03-30T07:39:01.785Z,49.22
2023-03-30T07:41:28.266Z,48.97
2023-03-30T07:43:54.731Z,49.06
2023-03-30T07:46:21.264Z,49.04
2023-03-30T07:48:47.806Z,48.77
2023-03-30T07:51:14.370Z,48.73
2023-03-30T07:53:40.852Z,48.64
2023-03-30T07:56:07.544Z,48.58
2023-03-30T07:58:34.028Z,48.42
2023-03-30T08:01:00.505Z,48.13
2023-03-30T08:03:27.109Z,47.98
2023-03-30T08:06:02.397Z,47.84
2023-03-30T08:08:28.942Z,47.51
2023-03-30T08:10:55.495Z,47.33
2023-03-30T08:13:22.814Z,47.21
2023-03-30T08:15:49.561Z,47.56
2023-03-30T08:18:16.466Z,47.10
2023-03-30T08:20:43.324Z,46.97
2023-03-30T08:23:11.097Z,47.05
2023-03-30T08:25:38.111Z,47.15
2023-03-30T08:28:04.964Z,46.67
2023-03-30T08:30:32.321Z,46.39
2023-03-30T08:32:59.057Z,46.40
2023-03-30T08:35:25.654Z,46.21
2023-03-30T08:37:52.189Z,46.13
2023-03-30T08:40:19.742Z,46.18
2023-03-30T08:42:49.412Z,46.14
2023-03-30T08:45:16.371Z,46.06
2023-03-30T08:47:46.036Z,46.28
2023-03-30T08:50:30.762Z,46.45
2023-03-30T08:52:57.515Z,46.33
2023-03-30T08:55:39.073Z,46.57
2023-03-30T08:58:23.584Z,46.59
2023-03-30T09:01:15.750Z,46.54
2023-03-30T09:04:07.813Z,46.53
2023-03-30T09:06:46.035Z,46.92
2023-03-30T09:09:16.436Z,46.91
2023-03-30T09:11:43.453Z,47.39
2023-03-30T09:14:20.008Z,47.09
2023-03-30T09:16:54.576Z,47.50
2023-03-30T09:19:27.865Z,47.26
2023-03-30T09:21:57.099Z,47.47
2023-03-30T09:24:26.279Z,47.21
2023-03-30T09:27:19.137Z,47.02
2023-03-30T09:29:49.565Z,47.06
2023-03-30T09:32:33.468Z,46.58
2023-03-30T09:35:11.593Z,46.88
2023-03-30T09:37:38.318Z,46.73
2023-03-30T09:40:18.800Z,46.79
2023-03-30T09:43:12.006Z,47.04
2023-03-30T09:45:40.687Z,47.26
2023-03-30T09:48:09.051Z,46.98
2023-03-30T09:50:42.507Z,47.20
2023-03-30T09:53:28.366Z,47.38
2023-03-30T09:56:02.528Z,47.24
2023-03-30T09:58:33.432Z,47.39
2023-03-30T10:01:13.333Z,47.34
2023-03-30T10:03:44.869Z,47.08
2023-03-30T10:06:13.295Z,46.36
2023-03-30T10:08:54.510Z,45.24
2023-03-30T10:11:49.610Z,43.62
2023-03-30T10:14:28.952Z,42.94
2023-03-30T10:16:57.260Z,41.90
2023-03-30T10:19:24.381Z,40.41
2023-03-30T10:21:59.045Z,38.81
2023-03-30T10:24:29.841Z,38.48
2023-03-30T10:27:18.038Z,38.54
2023-03-30T10:29:48.928Z,38.48
2023-03-30T10:32:18.986Z,38.09
2023-03-30T10:34:50.374Z,38.48
2023-03-30T10:37:22.905Z,39.37
2023-03-30T10:39:52.425Z,40.20
2023-03-30T10:42:23.742Z,40.62
2023-03-30T10:45:01.601Z,40.90
2023-03-30T10:47:54.597Z,41.57
2023-03-30T10:50:35.198Z,41.73
2023-03-30T10:53:39.557Z,42.09
2023-03-30T10:56:24.086Z,42.27
2023-03-30T10:58:59.370Z,42.10
2023-03-30T11:01:45.937Z,42.66
2023-03-30T11:04:55.339Z,42.72
2023-03-30T11:07:54.700Z,42.99
2023-03-30T11:10:28.750Z,43.17
2023-03-30T11:13:03.283Z,43.07
2023-03-30T11:15:43.184Z,42.82
2023-03-30T11:18:32.135Z,42.41
2023-03-30T11:21:05.848Z,42.29
2023-03-30T11:23:52.857Z,42.60
2023-03-30T11:26:44.015Z,42.47
2023-03-30T11:29:10.484Z,42.18
2023-03-30T11:31:46.081Z,42.33
2023-03-30T11:34:16.013Z,42.56
2023-03-30T11:36:53.027Z,43.02
2023-03-30T11:39:32.058Z,43.55
2023-03-30T11:42:09.308Z,43.98
2023-03-30T11:44:36.470Z,44.56
2023-03-30T11:47:02.951Z,44.62
2023-03-30T11:49:44.567Z,44.99
2023-03-30T11:52:38.477Z,45.12
2023-03-30T11:55:34.389Z,45.31
2023-03-30T11:58:14.321Z,45.46
2023-03-30T12:00:57.984Z,45.55
2023-03-30T12:03:43.000Z,45.45
2023-03-30T12:06:29.247Z,45.64
2023-03-30T12:09:29.646Z,45.47
2023-03-30T12:12:16.850Z,45.00
2023-03-30T12:15:08.162Z,44.89
2023-03-30T12:17:37.443Z,44.57
2023-03-30T12:20:10.666Z,44.56
2023-03-30T12:22:47.498Z,44.24
2023-03-30T12:25:16.765Z,44.15
2023-03-30T12:27:55.565Z,43.96
2023-03-30T12:30:28.419Z,43.60
2023-03-30T12:33:01.231Z,43.74
2023-03-30T12:35:48.950Z,43.61
2023-03-30T12:38:19.225Z,43.49
2023-03-30T12:40:53.325Z,43.47
2023-03-30T12:43:37.814Z,43.58
2023-03-30T12:46:22.894Z,43.50
2023-03-30T12:48:56.042Z,43.46
2023-03-30T12:51:37.105Z,43.74
2023-03-30T12:54:06.340Z,43.91
2023-03-30T12:56:57.532Z,44.24
2023-03-30T12:59:24.015Z,44.24
2023-03-30T13:02:27.278Z,44.33
2023-03-30T13:04:54.323Z,44.54
2023-03-30T13:07:24.158Z,44.89
2023-03-30T13:09:52.215Z,44.83
2023-03-30T13:12:30.840Z,44.74
2023-03-30T13:15:04.166Z,44.79
2023-03-30T13:17:49.117Z,44.91
2023-03-30T13:20:30.021Z,44.75
2023-03-30T13:23:09.020Z,44.60
2023-03-30T13:25:38.538Z,44.88
2023-03-30T13:28:42.070Z,44.88
2023-03-30T13:31:25.054Z,44.91
2023-03-30T13:34:19.933Z,45.02
2023-03-30T13:36:58.928Z,45.20
2023-03-30T13:39:36.966Z,45.43
2023-03-30T13:42:25.374Z,45.44
2023-03-30T13:44:51.872Z,45.87
2023-03-30T13:48:03.073Z,45.99
2023-03-30T13:50:32.628Z,45.93
2023-03-30T13:53:02.955Z,46.16
2023-03-30T13:55:35.556Z,46.10
2023-03-30T13:58:07.479Z,46.21
2023-03-30T14:00:48.480Z,46.26
2023-03-30T14:03:42.064Z,46.38
2023-03-30T14:06:15.349Z,46.61
2023-03-30T14:08:44.777Z,46.63
2023-03-30T14:11:22.760Z,46.71
2023-03-30T14:13:51.877Z,46.81
2023-03-30T14:16:24.363Z,46.73
2023-03-30T14:18:51.067Z,46.77
2023-03-30T14:21:22.059Z,46.99
2023-03-30T14:24:01.301Z,46.85
2023-03-30T14:26:29.483Z,46.90
2023-03-30T14:29:06.189Z,46.82
2023-03-30T14:31:40.655Z,47.00
2023-03-30T14:34:22.127Z,47.09
2023-03-30T14:36:48.718Z,47.19
2023-03-30T14:39:18.623Z,47.21
2023-03-30T14:41:45.112Z,47.24
2023-03-30T14:44:13.747Z,47.42
2023-03-30T14:46:42.367Z,47.40
2023-03-30T14:49:17.777Z,47.53
2023-03-30T14:51:48.310Z,47.84
2023-03-30T14:54:24.521Z,47.82
2023-03-30T14:57:00.340Z,47.82
2023-03-30T14:59:28.767Z,47.78
2023-03-30T15:01:56.338Z,47.99
2023-03-30T15:04:27.136Z,47.92
2023-03-30T15:06:54.100Z,47.89
2023-03-30T15:09:23.417Z,48.15
2023-03-30T15:12:03.124Z,48.34
2023-03-30T15:14:35.615Z,48.25
2023-03-30T15:17:10.407Z,48.35
2023-03-30T15:19:38.725Z,48.30
2023-03-30T15:22:13.449Z,48.56
2023-03-30T15:24:40.746Z,48.51
2023-03-30T15:27:09.204Z,48.64
2023-03-30T15:29:35.733Z,48.82
2023-03-30T15:32:15.633Z,48.84
2023-03-30T15:35:10.208Z,49.05
2023-03-30T15:37:37.007Z,48.83
2023-03-30T15:40:28.612Z,48.99
2023-03-30T15:43:33.982Z,49.17
2023-03-30T15:46:15.417Z,48.98
2023-03-30T15:48:52.773Z,49.04
2023-03-30T15:51:46.095Z,49.51
2023-03-30T15:54:37.905Z,49.85
2023-03-30T15:57:05.900Z,49.94
2023-03-30T15:59:54.590Z,50.33
2023-03-30T16:02:24.313Z,50.81
2023-03-30T16:04:50.968Z,51.66
2023-03-30T16:07:20.920Z,51.29
2023-03-30T16:09:48.152Z,52.44
2023-03-30T16:12:18.318Z,53.04
2023-03-30T16:14:46.399Z,53.62
2023-03-30T16:17:12.912Z,53.68
2023-03-30T16:19:40.515Z,53.07
2023-03-30T16:22:08.379Z,53.92
2023-03-30T16:24:35.426Z,54.83
2023-03-30T16:27:02.887Z,55.94
2023-03-30T16:29:29.377Z,56.99
2023-03-30T16:31:55.954Z,57.82
2023-03-30T16:34:22.880Z,59.12
2023-03-30T16:36:50.332Z,60.12
2023-03-30T16:39:24.472Z,61.03
2023-03-30T16:41:53.312Z,62.07
2023-03-30T16:44:21.376Z,62.84
2023-03-30T16:46:50.509Z,63.17
2023-03-30T16:49:23.270Z,63.30
2023-03-30T16:51:52.684Z,63.75
2023-03-30T16:54:31.193Z,64.77
2023-03-30T16:56:58.852Z,65.65
2023-03-30T16:59:27.480Z,66.37
2023-03-30T17:01:54.108Z,66.83
2023-03-30T17:04:20.661Z,66.92
2023-03-30T17:06:47.251Z,67.24
2023-03-30T17:09:16.615Z,68.01
2023-03-30T17:11:44.081Z,68.13
2023-03-30T17:14:10.901Z,68.17
2023-03-30T17:16:37.989Z,68.07
2023-03-30T17:19:05.076Z,68.00
2023-03-30T17:21:31.825Z,68.04
2023-03-30T17:23:58.316Z,68.35
2023-03-30T17:26:24.857Z,68.54
2023-03-30T17:28:51.391Z,68.95
2023-03-30T17:31:20.448Z,69.41
2023-03-30T17:33:47.951Z,69.39
2023-03-30T17:36:19.944Z,69.73
2023-03-30T17:38:47.081Z,70.19
2023-03-30T17:41:14.991Z,70.38
2023-03-30T17:43:42.172Z,70.35
2023-03-30T17:46:11.814Z,70.20
2023-03-30T17:48:39.056Z,69.36
2023-03-30T17:51:05.830Z,68.80
2023-03-30T17:53:32.847Z,68.79
2023-03-30T17:55:59.460Z,68.54
2023-03-30T17:58:28.886Z,68.20
2023-03-30T18:00:55.583Z,67.97
2023-03-30T18:03:23.312Z,67.65
2023-03-30T18:05:50.537Z,67.28
2023-03-30T18:08:19.694Z,67.31
2023-03-30T18:10:47.833Z,67.41
2023-03-30T18:13:15.614Z,67.37
2023-03-30T18:15:42.737Z,67.25
2023-03-30T18:18:11.812Z,67.16
2023-03-30T18:20:41.320Z,67.27
2023-03-30T18:23:08.296Z,67.06
2023-03-30T18:25:34.837Z,66.87
2023-03-30T18:28:01.697Z,66.64
2023-03-30T18:30:32.668Z,67.00
2023-03-30T18:32:59.866Z,67.35
2023-03-30T18:35:29.270Z,67.82
2023-03-30T18:37:56.796Z,68.13
2023-03-30T18:40:28.825Z,68.65
2023-03-30T18:42:56.585Z,69.22
2023-03-30T18:45:26.017Z,69.55
2023-03-30T18:47:56.891Z,70.07
2023-03-30T18:50:45.060Z,70.50
2023-03-30T18:53:14.085Z,70.97
2023-03-30T18:55:43.311Z,71.59
2023-03-30T18:58:14.464Z,71.61
2023-03-30T19:00:40.997Z,72.09
2023-03-30T19:03:07.827Z,72.22
2023-03-30T19:05:35.012Z,72.42
2023-03-30T19:08:01.675Z,72.48
2023-03-30T19:10:31.307Z,72.57
2023-03-30T19:12:58.201Z,72.88
2023-03-30T19:15:30.058Z,72.86
2023-03-30T19:17:56.728Z,73.13
2023-03-30T19:20:25.884Z,73.36
2023-03-30T19:22:53.327Z,73.14
2023-03-30T19:25:21.901Z,73.04
2023-03-30T19:28:01.798Z,72.98
2023-03-30T19:30:30.358Z,73.12
2023-03-30T19:33:00.516Z,73.06
2023-03-30T19:35:29.359Z,73.08
2023-03-30T19:37:56.238Z,73.12
2023-03-30T19:40:23.707Z,73.21
2023-03-30T19:42:50.962Z,73.31
2023-03-30T19:45:20.663Z,73.66
2023-03-30T19:47:47.412Z,73.78
2023-03-30T19:50:16.819Z,74.33
2023-03-30T19:52:44.086Z,74.50
2023-03-30T19:55:12.077Z,74.73
2023-03-30T19:57:39.036Z,75.01
2023-03-30T20:00:08.058Z,75.22
2023-03-30T20:02:34.589Z,75.36
2023-03-30T20:05:01.113Z,75.62
2023-03-30T20:07:27.595Z,75.60
2023-03-30T20:09:54.095Z,75.63
2023-03-30T20:12:20.653Z,75.67
2023-03-30T20:14:47.213Z,75.84
2023-03-30T20:17:13.969Z,76.09
2023-03-30T20:19:40.484Z,76.07
2023-03-30T20:22:07.819Z,76.12
2023-03-30T20:24:34.760Z,76.09
2023-03-30T20:27:01.265Z,76.29
2023-03-30T20:29:27.740Z,76.51
2023-03-30T20:31:54.238Z,76.42
2023-03-30T20:34:20.778Z,76.48
2023-03-30T20:36:47.278Z,76.58
2023-03-30T20:39:13.775Z,76.50
2023-03-30T20:41:40.349Z,76.58
2023-03-30T20:44:09.860Z,76.76
2023-03-30T20:46:40.798Z,76.45
2023-03-30T20:49:07.683Z,76.39
2023-03-30T20:51:34.702Z,76.40
2023-03-30T20:54:01.630Z,76.33
2023-03-30T20:56:28.107Z,76.74
2023-03-30T20:58:55.549Z,76.96
2023-03-30T21:01:24.765Z,77.14
2023-03-30T21:03:56.404Z,77.35
2023-03-30T21:06:23.567Z,77.32
2023-03-30T21:08:58.851Z,77.56
2023-03-30T21:11:26.655Z,77.41
2023-03-30T21:13:56.505Z,77.41
2023-03-30T21:16:24.626Z,77.43
2023-03-30T21:18:51.660Z,77.53
2023-03-30T21:21:18.745Z,77.66
2023-03-30T21:23:45.658Z,77.61
2023-03-30T21:26:13.737Z,77.42
2023-03-30T21:28:40.470Z,77.32
2023-03-30T21:31:10.969Z,77.35
2023-03-30T21:33:37.640Z,77.32
2023-03-30T21:36:05.219Z,77.42
2023-03-30T21:38:32.467Z,77.48
2023-03-30T21:41:12.385Z,77.64
2023-03-30T21:43:41.722Z,77.64
2023-03-30T21:46:10.706Z,77.77
2023-03-30T21:48:38.983Z,77.80
2023-03-30T21:51:09.277Z,77.89
2023-03-30T21:53:36.198Z,77.94
2023-03-30T21:56:03.859Z,78.00
2023-03-30T21:58:30.629Z,78.43
2023-03-30T22:01:08.912Z,78.76
2023-03-30T22:03:38.683Z,79.07
2023-03-30T22:06:08.003Z,79.04
2023-03-30T22:08:35.580Z,79.11
2023-03-30T22:11:07.602Z,79.38
2023-03-30T22:13:34.652Z,79.49
2023-03-30T22:16:07.473Z,79.65
2023-03-30T22:18:34.515Z,79.80
2023-03-30T22:21:02.863Z,80.29
2023-03-30T22:23:30.543Z,80.55
2023-03-30T22:25:57.831Z,80.26
2023-03-30T22:28:24.739Z,80.39
2023-03-30T22:30:51.794Z,80.34
2023-03-30T22:33:19.039Z,80.40
2023-03-30T22:35:47.127Z,80.26
2023-03-30T22:38:14.523Z,80.42
2023-03-30T22:40:41.246Z,80.50
2023-03-30T22:43:12.235Z,80.44
2023-03-30T22:45:39.946Z,80.43
2023-03-30T22:48:06.646Z,80.31
2023-03-30T22:50:33.342Z,80.29
2023-03-30T22:52:59.969Z,80.40
2023-03-30T22:55:26.740Z,80.33
2023-03-30T22:57:54.442Z,80.27
2023-03-30T23:00:21.483Z,80.20
2023-03-30T23:02:49.833Z,80.13
2023-03-30T23:05:17.561Z,80.31
2023-03-30T23:07:44.269Z,80.02
2023-03-30T23:10:14.225Z,80.07
2023-03-30T23:12:41.402Z,80.07
2023-03-30T23:15:08.383Z,80.04
2023-03-30T23:17:34.899Z,79.80
2023-03-30T23:20:01.429Z,79.77
2023-03-30T23:22:28.235Z,79.83
2023-03-30T23:24:55.063Z,79.65
2023-03-30T23:27:21.591Z,79.70
2023-03-30T23:29:48.581Z,79.66
2023-03-30T23:32:15.515Z,79.59
2023-03-30T23:34:42.828Z,79.64
2023-03-30T23:37:10.166Z,79.78
2023-03-30T23:39:36.685Z,79.87
2023-03-30T23:42:03.225Z,79.83
2023-03-30T23:44:29.936Z,79.71
2023-03-30T23:46:56.641Z,79.80
2023-03-30T23:49:23.177Z,79.92
2023-03-30T23:51:49.654Z,79.63
2023-03-30T23:54:16.148Z,79.68
2023-03-30T23:56:43.320Z,79.70
2023-03-30T23:59:10.807Z,79.58
